createdAt,value
2022-09-14T00:01:03.251Z,12.94
2022-09-14T00:01:50.202Z,12.94
2022-09-14T00:02:50.300Z,12.94
2022-09-14T00:03:50.180Z,12.94
2022-09-14T00:04:50.107Z,12.94
2022-09-14T00:05:50.131Z,12.94
2022-09-14T00:06:50.103Z,12.78
2022-09-14T00:07:50.109Z,13.11
2022-09-14T00:08:50.105Z,13.22
2022-09-14T00:09:50.113Z,13.22
2022-09-14T00:10:50.119Z,13.11
2022-09-14T00:11:50.124Z,13.11
2022-09-14T00:12:50.120Z,12.78
2022-09-14T00:13:50.188Z,12.94
2022-09-14T00:14:50.105Z,12.94
2022-09-14T00:15:50.104Z,12.94
2022-09-14T00:16:50.242Z,13.22
2022-09-14T00:17:50.112Z,12.94
2022-09-14T00:18:50.116Z,12.94
2022-09-14T00:19:50.117Z,12.94
2022-09-14T00:20:50.118Z,13.22
2022-09-14T00:21:50.135Z,13.22
2022-09-14T00:22:50.117Z,13.22
2022-09-14T00:23:50.117Z,12.78
2022-09-14T00:24:50.112Z,13.39
2022-09-14T00:25:50.115Z,13.39
2022-09-14T00:26:50.107Z,13.39
2022-09-14T00:27:50.120Z,13.39
2022-09-14T00:28:50.118Z,12.94
2022-09-14T00:29:50.117Z,12.94
2022-09-14T00:30:50.121Z,13.11
2022-09-14T00:31:50.165Z,12.61
2022-09-14T00:32:50.121Z,12.94
2022-09-14T00:33:50.216Z,12.94
2022-09-14T00:34:50.120Z,12.94
2022-09-14T00:35:50.120Z,12.94
2022-09-14T00:36:50.140Z,12.94
2022-09-14T00:37:50.151Z,12.94
2022-09-14T00:38:50.135Z,12.78
2022-09-14T00:39:50.171Z,12.94
2022-09-14T00:40:50.124Z,12.78
2022-09-14T00:41:50.130Z,12.94
2022-09-14T00:42:50.126Z,13.22
2022-09-14T00:43:50.180Z,13.39
2022-09-14T00:44:50.120Z,13.33
2022-09-14T00:45:50.172Z,13.39
2022-09-14T00:46:50.127Z,13.33
2022-09-14T00:47:50.132Z,13.17
2022-09-14T00:48:50.119Z,13.39
2022-09-14T00:49:50.136Z,13.22
2022-09-14T00:50:50.117Z,12.78
2022-09-14T00:51:50.127Z,13.22
2022-09-14T00:52:50.125Z,13
2022-09-14T00:53:50.170Z,13.39
2022-09-14T00:54:50.130Z,13.11
2022-09-14T00:55:50.132Z,12.89
2022-09-14T00:56:50.132Z,13.11
2022-09-14T00:57:50.138Z,12.89
2022-09-14T00:58:50.256Z,12.94
2022-09-14T00:59:50.140Z,12.72
2022-09-14T01:00:50.192Z,12.61
2022-09-14T01:01:50.212Z,12.78
2022-09-14T01:02:50.141Z,12.78
2022-09-14T01:03:50.140Z,12.72
2022-09-14T01:04:50.148Z,12.89
2022-09-14T01:05:50.146Z,12.78
2022-09-14T01:06:50.138Z,12.78
2022-09-14T01:07:50.143Z,12.78
2022-09-14T01:08:50.209Z,12.89
2022-09-14T01:09:50.169Z,12.89
2022-09-14T01:10:50.156Z,13.06
2022-09-14T01:11:51.726Z,13.06
2022-09-14T01:12:50.155Z,12.89
2022-09-14T01:13:50.154Z,13.06
2022-09-14T01:14:50.162Z,12.78
2022-09-14T01:15:50.162Z,13.06
2022-09-14T01:16:50.231Z,12.89
2022-09-14T01:17:50.156Z,13.17
2022-09-14T01:18:50.259Z,13.06
2022-09-14T01:19:50.169Z,12.94
2022-09-14T01:20:50.162Z,13.06
2022-09-14T01:21:50.169Z,12.89
2022-09-14T01:22:50.167Z,12.94
2022-09-14T01:23:50.230Z,12.89
2022-09-14T01:24:50.166Z,12.72
2022-09-14T01:25:50.275Z,13.06
2022-09-14T01:26:50.164Z,13.06
2022-09-14T01:27:50.193Z,12.89
2022-09-14T01:28:50.164Z,13.06
2022-09-14T01:29:50.165Z,13.06
2022-09-14T01:30:50.176Z,13.06
2022-09-14T01:31:50.255Z,12.56
2022-09-14T01:32:50.166Z,12.72
2022-09-14T01:33:50.177Z,12.72
2022-09-14T01:34:50.185Z,12.72
2022-09-14T01:35:50.178Z,12.72
2022-09-14T01:36:50.197Z,12.72
2022-09-14T01:37:50.187Z,13.06
2022-09-14T01:38:50.264Z,13.06
2022-09-14T01:39:50.201Z,12.89
2022-09-14T01:40:50.193Z,12.89
2022-09-14T01:41:50.211Z,13.06
2022-09-14T01:42:50.191Z,12.72
2022-09-14T01:43:50.193Z,12.89
2022-09-14T01:44:50.196Z,12.72
2022-09-14T01:45:50.226Z,12.89
2022-09-14T01:46:50.197Z,12.72
2022-09-14T01:47:50.201Z,12.72
2022-09-14T01:48:50.198Z,12.72
2022-09-14T01:49:50.205Z,12.56
2022-09-14T01:50:50.204Z,12.44
2022-09-14T01:51:50.204Z,12.44
2022-09-14T01:52:50.212Z,12.28
2022-09-14T01:53:50.209Z,12.11
2022-09-14T01:54:50.212Z,12.44
2022-09-14T01:55:50.212Z,12.44
2022-09-14T01:56:50.219Z,12.17
2022-09-14T01:57:50.244Z,12.44
2022-09-14T01:58:50.213Z,12.28
2022-09-14T01:59:50.213Z,12.44
2022-09-14T02:00:50.257Z,12.11
2022-09-14T02:01:50.699Z,12.28
2022-09-14T02:02:50.218Z,12.17
2022-09-14T02:03:50.281Z,12.44
2022-09-14T02:04:50.227Z,12.11
2022-09-14T02:05:50.227Z,12.28
2022-09-14T02:06:50.218Z,12.28
2022-09-14T02:07:50.226Z,12.44
2022-09-14T02:08:50.226Z,12.72
2022-09-14T02:09:50.224Z,12.72
2022-09-14T02:10:50.231Z,12.28
2022-09-14T02:11:50.233Z,12.72
2022-09-14T02:12:50.233Z,12.72
2022-09-14T02:13:50.339Z,12.72
2022-09-14T02:14:50.233Z,12.44
2022-09-14T02:15:50.271Z,12.28
2022-09-14T02:16:50.226Z,12.28
2022-09-14T02:17:50.236Z,12.28
2022-09-14T02:18:50.237Z,12.28
2022-09-14T02:19:50.236Z,12.44
2022-09-14T02:20:50.242Z,12.11
2022-09-14T02:21:50.235Z,11.61
2022-09-14T02:22:50.230Z,11.94
2022-09-14T02:23:50.234Z,11.83
2022-09-14T02:24:50.240Z,11.72
2022-09-14T02:25:50.241Z,11.83
2022-09-14T02:26:50.250Z,11.83
2022-09-14T02:27:50.246Z,11.83
2022-09-14T02:28:50.253Z,11.94
2022-09-14T02:29:50.272Z,11.72
2022-09-14T02:30:50.258Z,11.72
2022-09-14T02:31:50.294Z,11.83
2022-09-14T02:32:50.242Z,12.11
2022-09-14T02:33:50.313Z,11.83
2022-09-14T02:34:50.244Z,12.28
2022-09-14T02:35:50.250Z,12.28
2022-09-14T02:36:50.254Z,12.11
2022-09-14T02:37:50.249Z,12.11
2022-09-14T02:38:50.259Z,12.28
2022-09-14T02:39:50.307Z,12.11
2022-09-14T02:40:50.260Z,12.28
2022-09-14T02:41:50.253Z,11.94
2022-09-14T02:42:50.256Z,12.28
2022-09-14T02:43:50.251Z,12.17
2022-09-14T02:44:50.253Z,12.11
2022-09-14T02:45:50.289Z,11.83
2022-09-14T02:46:50.339Z,12.11
2022-09-14T02:47:50.254Z,12.28
2022-09-14T02:48:50.315Z,12.11
2022-09-14T02:49:50.255Z,12.28
2022-09-14T02:50:50.261Z,12.11
2022-09-14T02:51:50.269Z,12.28
2022-09-14T02:52:50.267Z,12.28
2022-09-14T02:53:50.264Z,12.44
2022-09-14T02:54:50.269Z,12.56
2022-09-14T02:55:50.259Z,12.56
2022-09-14T02:56:50.266Z,12.28
2022-09-14T02:57:50.262Z,12.72
2022-09-14T02:58:50.314Z,12.44
2022-09-14T02:59:50.271Z,12.56
2022-09-14T03:00:50.338Z,12.28
2022-09-14T03:01:50.323Z,12.44
2022-09-14T03:02:50.271Z,12.28
2022-09-14T03:03:50.267Z,12.11
2022-09-14T03:04:50.270Z,12.28
2022-09-14T03:05:50.273Z,12.11
2022-09-14T03:06:50.273Z,12.28
2022-09-14T03:07:50.273Z,12.28
2022-09-14T03:08:50.374Z,12.28
2022-09-14T03:09:50.290Z,12.28
2022-09-14T03:10:50.273Z,12.44
2022-09-14T03:11:50.278Z,12.28
2022-09-14T03:12:50.289Z,12.28
2022-09-14T03:13:50.340Z,12.28
2022-09-14T03:14:50.288Z,12.11
2022-09-14T03:15:50.340Z,12.11
2022-09-14T03:16:50.290Z,12.11
2022-09-14T03:17:50.389Z,12.11
2022-09-14T03:18:50.291Z,12.11
2022-09-14T03:19:50.283Z,11.94
2022-09-14T03:20:50.294Z,12.28
2022-09-14T03:21:50.284Z,11.83
2022-09-14T03:22:50.289Z,11.83
2022-09-14T03:23:50.328Z,12.11
2022-09-14T03:24:50.288Z,11.83
2022-09-14T03:25:50.281Z,12.11
2022-09-14T03:26:50.288Z,11.94
2022-09-14T03:27:50.294Z,11.94
2022-09-14T03:28:50.305Z,12.28
2022-09-14T03:29:50.289Z,11.83
2022-09-14T03:30:50.295Z,11.94
2022-09-14T03:31:50.337Z,12.11
2022-09-14T03:32:50.300Z,12.11
2022-09-14T03:33:50.370Z,12.28
2022-09-14T03:34:50.299Z,12.44
2022-09-14T03:35:50.310Z,12.44
2022-09-14T03:36:50.302Z,12.56
2022-09-14T03:37:50.299Z,12.44
2022-09-14T03:38:50.298Z,12.44
2022-09-14T03:39:50.321Z,12.44
2022-09-14T03:40:50.305Z,12.56
2022-09-14T03:41:50.292Z,12.56
2022-09-14T03:42:50.301Z,12.89
2022-09-14T03:43:50.403Z,12.28
2022-09-14T03:44:50.296Z,12.56
2022-09-14T03:45:50.301Z,12.72
2022-09-14T03:46:50.345Z,12.56
2022-09-14T03:47:50.302Z,12.72
2022-09-14T03:48:50.310Z,12.72
2022-09-14T03:49:50.415Z,12.56
2022-09-14T03:50:50.303Z,12.56
2022-09-14T03:51:50.299Z,12.28
2022-09-14T03:52:50.305Z,12.44
2022-09-14T03:53:50.396Z,12.28
2022-09-14T03:54:50.308Z,12.28
2022-09-14T03:55:50.315Z,12.44
2022-09-14T03:56:50.308Z,12.28
2022-09-14T03:57:50.310Z,12.28
2022-09-14T03:58:50.371Z,12.11
2022-09-14T03:59:50.322Z,12.11
2022-09-14T04:00:50.319Z,11.94
2022-09-14T04:01:50.347Z,12.11
2022-09-14T04:02:50.397Z,12.11
2022-09-14T04:03:50.322Z,12.28
2022-09-14T04:04:50.322Z,11.94
2022-09-14T04:05:50.338Z,12.11
2022-09-14T04:06:50.313Z,11.94
2022-09-14T04:07:50.328Z,12.11
2022-09-14T04:08:50.369Z,11.83
2022-09-14T04:09:50.329Z,12.28
2022-09-14T04:10:50.322Z,12.28
2022-09-14T04:11:50.328Z,12.44
2022-09-14T04:12:50.322Z,12.28
2022-09-14T04:13:50.372Z,12.28
2022-09-14T04:14:50.321Z,12.44
2022-09-14T04:15:50.362Z,12.72
2022-09-14T04:16:50.332Z,12.28
2022-09-14T04:17:50.325Z,12.56
2022-09-14T04:18:50.332Z,12.44
2022-09-14T04:19:50.328Z,12.28
2022-09-14T04:20:50.324Z,12.28
2022-09-14T04:21:50.350Z,12.11
2022-09-14T04:22:50.323Z,11.83
2022-09-14T04:24:13.150Z,12.11
2022-09-14T04:24:50.339Z,11.94
2022-09-14T04:25:50.329Z,11.83
2022-09-14T04:26:50.342Z,11.83
2022-09-14T04:27:59.069Z,11.94
2022-09-14T04:28:50.329Z,11.83
2022-09-14T04:29:50.357Z,11.72
2022-09-14T04:30:50.428Z,11.83
2022-09-14T04:31:50.330Z,11.83
2022-09-14T04:32:50.330Z,11.83
2022-09-14T04:33:50.344Z,11.83
2022-09-14T04:34:50.338Z,11.94
2022-09-14T04:35:50.344Z,12.11
2022-09-14T04:36:50.339Z,11.94
2022-09-14T04:37:50.361Z,11.94
2022-09-14T04:38:50.363Z,12.28
2022-09-14T04:39:50.385Z,12.28
2022-09-14T04:40:50.335Z,12.28
2022-09-14T04:41:50.338Z,12.11
2022-09-14T04:42:50.343Z,12.28
2022-09-14T04:43:50.346Z,12.28
2022-09-14T04:44:50.340Z,12.11
2022-09-14T04:45:50.341Z,12.28
2022-09-14T04:46:50.352Z,12.28
2022-09-14T04:47:50.342Z,12.28
2022-09-14T04:48:50.397Z,12.11
2022-09-14T04:49:50.342Z,12.28
2022-09-14T04:50:50.348Z,12.44
2022-09-14T04:51:50.342Z,12.44
2022-09-14T04:52:50.338Z,12.44
2022-09-14T04:53:50.411Z,12.28
2022-09-14T04:54:50.344Z,12.56
2022-09-14T04:55:50.343Z,12.44
2022-09-14T04:56:50.346Z,12.44
2022-09-14T04:57:50.374Z,12.72
2022-09-14T04:58:51.742Z,12.44
2022-09-14T04:59:50.346Z,12.56
2022-09-14T05:00:50.346Z,12.72
2022-09-14T05:01:50.416Z,12.72
2022-09-14T05:02:50.397Z,12.72
2022-09-14T05:03:50.452Z,12.72
2022-09-14T05:04:50.340Z,12.72
2022-09-14T05:05:50.353Z,12.56
2022-09-14T05:06:50.341Z,12.56
2022-09-14T05:07:50.339Z,12.72
2022-09-14T05:08:50.428Z,12.72
2022-09-14T05:09:50.387Z,12.56
2022-09-14T05:10:50.342Z,12.72
2022-09-14T05:11:50.353Z,12.56
2022-09-14T05:12:50.344Z,12.56
2022-09-14T05:13:50.548Z,12.44
2022-09-14T05:14:50.344Z,12.56
2022-09-14T05:15:50.419Z,12.44
2022-09-14T05:16:50.345Z,12.44
2022-09-14T05:17:50.350Z,12.28
2022-09-14T05:18:50.412Z,12.72
2022-09-14T05:19:50.345Z,12.89
2022-09-14T05:20:50.352Z,12.72
2022-09-14T05:21:50.352Z,12.56
2022-09-14T05:22:50.357Z,12.72
2022-09-14T05:23:50.396Z,12.44
2022-09-14T05:24:50.355Z,12.44
2022-09-14T05:25:50.472Z,12.44
2022-09-14T05:26:50.350Z,12.89
2022-09-14T05:27:50.356Z,12.72
2022-09-14T05:28:50.347Z,12.72
2022-09-14T05:29:50.350Z,12.89
2022-09-14T05:30:50.380Z,12.89
2022-09-14T05:31:50.354Z,12.89
2022-09-14T05:32:50.351Z,12.89
2022-09-14T05:33:50.357Z,12.72
2022-09-14T05:34:50.367Z,13.17
2022-09-14T05:35:50.356Z,12.89
2022-09-14T05:36:50.360Z,13.17
2022-09-14T05:37:50.355Z,13.17
2022-09-14T05:38:50.414Z,13.17
2022-09-14T05:39:50.410Z,13.33
2022-09-14T05:40:50.374Z,13.17
2022-09-14T05:41:50.427Z,12.89
2022-09-14T05:42:50.364Z,13.06
2022-09-14T05:43:50.359Z,13.06
2022-09-14T05:44:50.369Z,13.06
2022-09-14T05:45:50.362Z,13.17
2022-09-14T05:46:50.452Z,13.5
2022-09-14T05:47:50.364Z,13.17
2022-09-14T05:48:50.398Z,13.17
2022-09-14T05:49:50.364Z,13.17
2022-09-14T05:50:50.364Z,13.17
2022-09-14T05:51:50.374Z,13.06
2022-09-14T05:52:50.378Z,13.06
2022-09-14T05:53:50.429Z,12.89
2022-09-14T05:54:50.368Z,12.72
2022-09-14T05:55:50.368Z,12.28
2022-09-14T05:56:50.376Z,12.44
2022-09-14T05:57:50.389Z,12.28
2022-09-14T05:58:50.376Z,12.28
2022-09-14T05:59:50.377Z,12.28
2022-09-14T06:00:50.384Z,12.44
2022-09-14T06:01:50.450Z,12.56
2022-09-14T06:02:50.376Z,12.72
2022-09-14T06:03:50.484Z,12.28
2022-09-14T06:04:50.447Z,12.72
2022-09-14T06:05:50.378Z,12.44
2022-09-14T06:07:07.883Z,12.28
2022-09-14T06:07:50.383Z,12.72
2022-09-14T06:08:50.390Z,12.44
2022-09-14T06:09:50.390Z,12.72
2022-09-14T06:10:50.400Z,12.89
2022-09-14T06:11:50.391Z,13.06
2022-09-14T06:12:54.851Z,13.06
2022-09-14T06:13:50.465Z,12.72
2022-09-14T06:14:50.403Z,13.06
2022-09-14T06:15:50.399Z,12.89
2022-09-14T06:16:50.393Z,13.17
2022-09-14T06:17:50.394Z,13.33
2022-09-14T06:18:50.394Z,13.67
2022-09-14T06:19:50.397Z,13.5
2022-09-14T06:20:50.399Z,13.78
2022-09-14T06:21:50.395Z,13.78
2022-09-14T06:22:50.400Z,13.78
2022-09-14T06:23:50.442Z,13.94
2022-09-14T06:24:50.400Z,14.06
2022-09-14T06:25:50.400Z,13.94
2022-09-14T06:26:50.411Z,13.78
2022-09-14T06:27:50.407Z,13.94
2022-09-14T06:28:50.440Z,14.06
2022-09-14T06:29:50.432Z,14.56
2022-09-14T06:30:50.409Z,14.89
2022-09-14T06:31:50.403Z,15.72
2022-09-14T06:32:50.403Z,16.06
2022-09-14T06:33:50.399Z,16.22
2022-09-14T06:34:50.413Z,16.39
2022-09-14T06:35:50.415Z,17
2022-09-14T06:36:50.415Z,17.44
2022-09-14T06:37:50.408Z,17
2022-09-14T06:38:50.519Z,16.67
2022-09-14T06:39:50.441Z,17.17
2022-09-14T06:40:50.407Z,17.61
2022-09-14T06:41:50.412Z,18.11
2022-09-14T06:42:50.420Z,17.78
2022-09-14T06:43:50.469Z,17.28
2022-09-14T06:44:50.414Z,17.28
2022-09-14T06:45:50.438Z,17.28
2022-09-14T06:46:50.420Z,17.28
2022-09-14T06:47:50.420Z,17.17
2022-09-14T06:48:50.421Z,17.28
2022-09-14T06:49:50.420Z,17.17
2022-09-14T06:50:50.423Z,17.17
2022-09-14T06:51:50.418Z,17.17
2022-09-14T06:52:50.426Z,16.06
2022-09-14T06:53:50.512Z,15.56
2022-09-14T06:54:50.429Z,15.89
2022-09-14T06:55:50.422Z,15.72
2022-09-14T06:56:50.422Z,15.72
2022-09-14T06:57:50.424Z,15.72
2022-09-14T06:58:50.467Z,15.56
2022-09-14T06:59:50.433Z,15.56
2022-09-14T07:00:50.424Z,15.22
2022-09-14T07:01:50.457Z,15.56
2022-09-14T07:02:54.973Z,15
2022-09-14T07:03:50.439Z,15
2022-09-14T07:04:50.442Z,14.67
2022-09-14T07:05:50.442Z,15
2022-09-14T07:06:50.441Z,14.89
2022-09-14T07:07:50.437Z,14.89
2022-09-14T07:08:50.531Z,15
2022-09-14T07:09:50.451Z,14.67
2022-09-14T07:10:50.449Z,14.56
2022-09-14T07:11:50.452Z,14.67
2022-09-14T07:12:50.447Z,14.56
2022-09-14T07:13:50.443Z,14.06
2022-09-14T07:14:50.446Z,14.28
2022-09-14T07:15:50.457Z,14.28
2022-09-14T07:16:50.453Z,14.39
2022-09-14T07:17:50.481Z,14.67
2022-09-14T07:18:50.522Z,14.22
2022-09-14T07:19:50.460Z,14.28
2022-09-14T07:20:50.465Z,14.61
2022-09-14T07:21:50.462Z,14.61
2022-09-14T07:22:50.468Z,14.78
2022-09-14T07:23:50.542Z,14.78
2022-09-14T07:24:50.468Z,14.61
2022-09-14T07:25:50.473Z,14.44
2022-09-14T07:26:50.463Z,14.61
2022-09-14T07:27:50.464Z,14.78
2022-09-14T07:28:50.461Z,15.06
2022-09-14T07:29:50.460Z,14.61
2022-09-14T07:30:50.491Z,15.06
2022-09-14T07:31:50.469Z,15.28
2022-09-14T07:32:50.468Z,15.39
2022-09-14T07:33:50.534Z,15.44
2022-09-14T07:34:50.463Z,15.61
2022-09-14T07:35:50.475Z,15.61
2022-09-14T07:36:50.489Z,15.89
2022-09-14T07:37:50.472Z,15.78
2022-09-14T07:38:53.088Z,16.22
2022-09-14T07:39:50.523Z,15.89
2022-09-14T07:40:50.473Z,16.06
2022-09-14T07:41:50.478Z,16.06
2022-09-14T07:42:52.439Z,16.06
2022-09-14T07:43:50.484Z,15.61
2022-09-14T07:44:50.483Z,15.28
2022-09-14T07:45:50.518Z,15.28
2022-09-14T07:46:50.481Z,15.28
2022-09-14T07:47:50.486Z,15.28
2022-09-14T07:48:50.552Z,15.28
2022-09-14T07:49:50.513Z,15.44
2022-09-14T07:50:50.491Z,15.17
2022-09-14T07:51:50.487Z,15.17
2022-09-14T07:52:50.487Z,15.17
2022-09-14T07:53:50.561Z,15.61
2022-09-14T07:54:50.499Z,15.61
2022-09-14T07:55:50.499Z,16.06
2022-09-14T07:56:50.497Z,16.06
2022-09-14T07:57:56.293Z,15.89
2022-09-14T07:58:54.545Z,16.22
2022-09-14T07:59:50.494Z,16.56
2022-09-14T08:00:50.494Z,16.56
2022-09-14T08:01:50.571Z,16.89
2022-09-14T08:02:51.028Z,17.33
2022-09-14T08:03:50.643Z,17.33
2022-09-14T08:04:50.500Z,17.5
2022-09-14T08:05:50.510Z,17.5
2022-09-14T08:06:50.490Z,17.5
2022-09-14T08:07:50.502Z,17.5
2022-09-14T08:08:50.583Z,17
2022-09-14T08:09:50.493Z,17.5
2022-09-14T08:10:50.496Z,17.5
2022-09-14T08:11:50.500Z,17.5
2022-09-14T08:12:50.502Z,17.17
2022-09-14T08:13:50.510Z,16.89
2022-09-14T08:14:50.521Z,17
2022-09-14T08:15:50.507Z,17.33
2022-09-14T08:16:50.573Z,17.17
2022-09-14T08:17:50.503Z,17.17
2022-09-14T08:18:50.636Z,17.5
2022-09-14T08:19:50.519Z,17.94
2022-09-14T08:20:50.512Z,17.5
2022-09-14T08:21:50.617Z,17.67
2022-09-14T08:22:50.513Z,18.17
2022-09-14T08:23:50.522Z,17.94
2022-09-14T08:24:50.510Z,18.28
2022-09-14T08:25:50.513Z,18.17
2022-09-14T08:26:50.507Z,17.94
2022-09-14T08:27:50.510Z,18.44
2022-09-14T08:28:50.614Z,18.44
2022-09-14T08:29:50.517Z,18.44
2022-09-14T08:30:50.517Z,18.94
2022-09-14T08:31:50.579Z,18.94
2022-09-14T08:32:50.514Z,18.44
2022-09-14T08:33:50.583Z,18.94
2022-09-14T08:34:50.522Z,19.28
2022-09-14T08:35:58.447Z,19.56
2022-09-14T08:36:50.520Z,19.44
2022-09-14T08:37:50.539Z,19.06
2022-09-14T08:38:50.522Z,18.94
2022-09-14T08:39:51.704Z,19.44
2022-09-14T08:40:50.526Z,19.28
2022-09-14T08:41:50.530Z,19.56
2022-09-14T08:42:50.522Z,19.94
2022-09-14T08:43:50.590Z,19.06
2022-09-14T08:44:50.519Z,19.44
2022-09-14T08:45:50.565Z,20.11
2022-09-14T08:46:50.525Z,19.94
2022-09-14T08:47:50.523Z,20.11
2022-09-14T08:48:50.612Z,20.33
2022-09-14T08:49:50.526Z,20.33
2022-09-14T08:50:50.522Z,20.22
2022-09-14T08:51:50.521Z,19.78
2022-09-14T08:52:50.532Z,19.56
2022-09-14T08:53:50.557Z,19.28
2022-09-14T08:54:50.530Z,19.44
2022-09-14T08:55:50.539Z,19.56
2022-09-14T08:56:50.541Z,19.78
2022-09-14T08:57:50.527Z,19.44
2022-09-14T08:58:50.538Z,19.28
2022-09-14T08:59:50.533Z,19.28
2022-09-14T09:00:50.617Z,19.56
2022-09-14T09:01:50.529Z,20.33
2022-09-14T09:02:50.531Z,20.56
2022-09-14T09:03:50.564Z,20.72
2022-09-14T09:04:50.541Z,19.78
2022-09-14T09:05:50.536Z,19.28
2022-09-14T09:06:50.535Z,18.78
2022-09-14T09:07:50.536Z,18.44
2022-09-14T09:08:50.609Z,18.28
2022-09-14T09:09:50.561Z,18.28
2022-09-14T09:10:50.538Z,18.61
2022-09-14T09:11:50.541Z,18.78
2022-09-14T09:12:50.540Z,18.17
2022-09-14T09:13:50.530Z,18.78
2022-09-14T09:14:50.536Z,18.94
2022-09-14T09:15:50.627Z,18.94
2022-09-14T09:16:50.635Z,18.61
2022-09-14T09:17:50.537Z,18.94
2022-09-14T09:18:50.557Z,18.78
2022-09-14T09:19:50.544Z,18.78
2022-09-14T09:20:50.544Z,18.28
2022-09-14T09:21:50.539Z,18.17
2022-09-14T09:22:50.544Z,18.17
2022-09-14T09:23:50.543Z,18.44
2022-09-14T09:24:50.538Z,18.78
2022-09-14T09:25:50.554Z,18.94
2022-09-14T09:26:50.541Z,18.94
2022-09-14T09:27:50.551Z,18.94
2022-09-14T09:28:50.541Z,19.28
2022-09-14T09:29:50.549Z,18.94
2022-09-14T09:30:50.549Z,18.94
2022-09-14T09:31:50.586Z,18.94
2022-09-14T09:32:50.548Z,18.94
2022-09-14T09:33:50.541Z,18.44
2022-09-14T09:34:50.559Z,18.28
2022-09-14T09:35:50.549Z,18.61
2022-09-14T09:36:50.544Z,18.78
2022-09-14T09:37:50.561Z,19.44
2022-09-14T09:38:50.611Z,19.56
2022-09-14T09:39:50.602Z,20.33
2022-09-14T09:40:50.545Z,20.72
2022-09-14T09:41:50.646Z,19.94
2022-09-14T09:42:50.553Z,19.78
2022-09-14T09:43:50.566Z,19.44
2022-09-14T09:44:50.549Z,19.06
2022-09-14T09:45:50.542Z,19.94
2022-09-14T09:46:50.647Z,20.56
2022-09-14T09:47:50.548Z,21
2022-09-14T09:48:50.640Z,21.22
2022-09-14T09:49:50.552Z,20.33
2022-09-14T09:50:50.553Z,20.83
2022-09-14T09:51:50.554Z,21
2022-09-14T09:52:50.564Z,21.22
2022-09-14T09:53:50.668Z,21.39
2022-09-14T09:54:50.565Z,20.56
2022-09-14T09:55:50.562Z,20.11
2022-09-14T09:56:50.562Z,19.78
2022-09-14T09:57:50.668Z,19.56
2022-09-14T09:58:50.562Z,19.56
2022-09-14T09:59:50.563Z,19.44
2022-09-14T10:00:50.586Z,20.33
2022-09-14T10:01:50.617Z,21
2022-09-14T10:02:50.570Z,21.89
2022-09-14T10:03:50.562Z,22.39
2022-09-14T10:04:50.574Z,22.94
2022-09-14T10:05:50.573Z,23.11
2022-09-14T10:06:50.578Z,21.72
2022-09-14T10:07:50.574Z,21.39
2022-09-14T10:08:50.641Z,20.83
2022-09-14T10:09:50.576Z,21.39
2022-09-14T10:10:50.583Z,22.39
2022-09-14T10:11:50.582Z,22.94
2022-09-14T10:12:50.577Z,23.44
2022-09-14T10:13:50.603Z,23.67
2022-09-14T10:14:50.592Z,22.94
2022-09-14T10:15:50.654Z,22.22
2022-09-14T10:16:50.579Z,22.06
2022-09-14T10:17:50.589Z,22
2022-09-14T10:18:50.741Z,21.89
2022-09-14T10:19:50.592Z,21.72
2022-09-14T10:20:50.595Z,22.06
2022-09-14T10:21:50.592Z,22.61
2022-09-14T10:22:50.591Z,22.39
2022-09-14T10:23:50.607Z,22.39
2022-09-14T10:24:50.612Z,21.56
2022-09-14T10:25:50.603Z,21.22
2022-09-14T10:26:50.589Z,21.72
2022-09-14T10:27:50.597Z,22.61
2022-09-14T10:28:50.741Z,23.11
2022-09-14T10:29:50.640Z,22.61
2022-09-14T10:30:50.633Z,22.61
2022-09-14T10:31:50.597Z,22.06
2022-09-14T10:32:50.604Z,21.56
2022-09-14T10:33:50.601Z,22.06
2022-09-14T10:34:50.602Z,21.89
2022-09-14T10:35:50.604Z,22.22
2022-09-14T10:36:50.599Z,21.89
2022-09-14T10:37:50.608Z,22.06
2022-09-14T10:38:50.625Z,21.72
2022-09-14T10:39:50.620Z,21.56
2022-09-14T10:40:50.603Z,21.72
2022-09-14T10:41:50.599Z,21.56
2022-09-14T10:42:50.611Z,21.56
2022-09-14T10:43:50.612Z,22.06
2022-09-14T10:44:50.603Z,22.22
2022-09-14T10:45:50.649Z,22.39
2022-09-14T10:46:50.718Z,22.61
2022-09-14T10:47:50.603Z,23.11
2022-09-14T10:48:50.662Z,23.28
2022-09-14T10:49:50.611Z,23.44
2022-09-14T10:50:50.621Z,23.67
2022-09-14T10:51:50.607Z,22.61
2022-09-14T10:52:50.619Z,21.89
2022-09-14T10:53:50.615Z,21.72
2022-09-14T10:54:50.611Z,22.06
2022-09-14T10:55:50.616Z,22.61
2022-09-14T10:56:50.606Z,23.11
2022-09-14T10:57:50.616Z,23.67
2022-09-14T10:58:50.616Z,24.17
2022-09-14T10:59:50.629Z,24.67
2022-09-14T11:00:50.612Z,24.67
2022-09-14T11:01:50.764Z,24.67
2022-09-14T11:02:50.733Z,24.33
2022-09-14T11:03:50.611Z,24.67
2022-09-14T11:04:50.619Z,24.67
2022-09-14T11:05:50.619Z,24.17
2022-09-14T11:06:50.628Z,25.22
2022-09-14T11:07:50.619Z,25.44
2022-09-14T11:08:50.629Z,24.67
2022-09-14T11:09:50.620Z,24.67
2022-09-14T11:10:50.629Z,23.67
2022-09-14T11:11:50.635Z,22.61
2022-09-14T11:12:50.635Z,22.78
2022-09-14T11:13:50.638Z,23.28
2022-09-14T11:14:50.638Z,23.83
2022-09-14T11:15:50.693Z,24
2022-09-14T11:16:50.634Z,24.67
2022-09-14T11:17:50.734Z,24.67
2022-09-14T11:18:50.651Z,24.67
2022-09-14T11:19:50.637Z,24.5
2022-09-14T11:20:50.630Z,24.17
2022-09-14T11:21:50.632Z,23.83
2022-09-14T11:22:50.643Z,24.17
2022-09-14T11:23:50.637Z,24.67
2022-09-14T11:24:50.642Z,25.44
2022-09-14T11:25:50.649Z,26.33
2022-09-14T11:26:50.640Z,26.89
2022-09-14T11:27:50.643Z,26.94
2022-09-14T11:28:50.664Z,26.72
2022-09-14T11:29:50.649Z,25.22
2022-09-14T11:30:50.707Z,24.67
2022-09-14T11:32:04.402Z,24.89
2022-09-14T11:32:50.651Z,25.61
2022-09-14T11:33:50.818Z,25.06
2022-09-14T11:34:50.649Z,25.78
2022-09-14T11:35:50.662Z,26.17
2022-09-14T11:36:50.656Z,25.78
2022-09-14T11:37:50.645Z,25.44
2022-09-14T11:38:50.652Z,25.22
2022-09-14T11:39:50.687Z,24.67
2022-09-14T11:40:50.645Z,25.22
2022-09-14T11:41:50.646Z,24.67
2022-09-14T11:42:50.655Z,24.67
2022-09-14T11:43:50.655Z,25.22
2022-09-14T11:44:50.649Z,25.78
2022-09-14T11:45:50.685Z,26.17
2022-09-14T11:46:50.711Z,26.33
2022-09-14T11:47:50.661Z,26.17
2022-09-14T11:48:50.663Z,25.61
2022-09-14T11:49:50.684Z,25.61
2022-09-14T11:50:50.675Z,26.33
2022-09-14T11:51:50.686Z,26.17
2022-09-14T11:52:50.669Z,26.89
2022-09-14T11:53:50.671Z,26.89
2022-09-14T11:54:50.666Z,26.33
2022-09-14T11:55:50.685Z,26.72
2022-09-14T11:56:50.675Z,26.61
2022-09-14T11:57:50.665Z,25.44
2022-09-14T11:58:50.739Z,25.61
2022-09-14T11:59:50.704Z,26
2022-09-14T12:00:50.673Z,26.94
2022-09-14T12:01:50.679Z,27.17
2022-09-14T12:02:50.724Z,27.17
2022-09-14T12:03:52.089Z,28.11
2022-09-14T12:04:50.676Z,28.11
2022-09-14T12:05:50.701Z,28.11
2022-09-14T12:06:50.677Z,27.5
2022-09-14T12:07:50.678Z,27.5
2022-09-14T12:08:50.687Z,27.5
2022-09-14T12:09:50.684Z,26.94
2022-09-14T12:10:50.683Z,26.94
2022-09-14T12:11:50.683Z,26.94
2022-09-14T12:12:50.684Z,26.94
2022-09-14T12:13:50.681Z,26.94
2022-09-14T12:14:50.689Z,26.94
2022-09-14T12:15:50.737Z,27.5
2022-09-14T12:16:50.691Z,28.11
2022-09-14T12:17:50.677Z,28.33
2022-09-14T12:18:50.752Z,28.56
2022-09-14T12:19:50.688Z,28.72
2022-09-14T12:20:50.685Z,28.72
2022-09-14T12:21:50.701Z,28.56
2022-09-14T12:22:50.700Z,27.72
2022-09-14T12:23:50.846Z,27.5
2022-09-14T12:24:50.695Z,27.5
2022-09-14T12:25:50.701Z,27.94
2022-09-14T12:26:50.690Z,27.5
2022-09-14T12:27:50.697Z,27.39
2022-09-14T12:28:50.733Z,26.94
2022-09-14T12:29:50.714Z,26.72
2022-09-14T12:30:50.729Z,26.56
2022-09-14T12:31:50.707Z,26.17
2022-09-14T12:32:50.704Z,26.33
2022-09-14T12:33:50.728Z,26.17
2022-09-14T12:34:50.711Z,26.94
2022-09-14T12:35:50.698Z,27.39
2022-09-14T12:36:50.703Z,27.5
2022-09-14T12:37:50.817Z,27.39
2022-09-14T12:38:50.716Z,27.39
2022-09-14T12:39:50.728Z,27.5
2022-09-14T12:40:50.715Z,28.11
2022-09-14T12:41:50.715Z,28.56
2022-09-14T12:42:50.714Z,28.72
2022-09-14T12:43:50.994Z,28.72
2022-09-14T12:44:50.711Z,28.72
2022-09-14T12:45:50.769Z,28.56
2022-09-14T12:46:50.715Z,28.72
2022-09-14T12:47:50.723Z,29.17
2022-09-14T12:48:50.777Z,28.72
2022-09-14T12:49:50.711Z,28.11
2022-09-14T12:50:50.722Z,28.11
2022-09-14T12:51:50.721Z,27.94
2022-09-14T12:52:50.722Z,27.5
2022-09-14T12:53:50.824Z,27.5
2022-09-14T12:54:51.542Z,27.39